createdAt,value
2023-05-14T00:01:43.534Z,8.35
2023-05-14T00:04:11.736Z,9.10
2023-05-14T00:06:39.804Z,9.30
2023-05-14T00:09:08.178Z,9.35
2023-05-14T00:11:37.733Z,9.20
2023-05-14T00:14:06.085Z,9.20
2023-05-14T00:16:34.200Z,10.02
2023-05-14T00:19:02.479Z,10.15
2023-05-14T00:21:31.654Z,9.70
2023-05-14T00:23:59.709Z,9.20
2023-05-14T00:26:27.970Z,9.63
2023-05-14T00:28:57.517Z,9.40
2023-05-14T00:31:25.674Z,9.15
2023-05-14T00:33:54.040Z,10.27
2023-05-14T00:36:22.114Z,10.38
2023-05-14T00:38:50.545Z,10.07
2023-05-14T00:41:18.731Z,10.38
2023-05-14T00:43:46.776Z,10.88
2023-05-14T00:46:17.404Z,10.48
2023-05-14T00:48:46.185Z,11.20
2023-05-14T00:51:14.328Z,10.43
2023-05-14T00:53:42.884Z,10.75
2023-05-14T00:56:11.636Z,11.02
2023-05-14T00:58:39.724Z,11.50
2023-05-14T01:01:10.590Z,11.25
2023-05-14T01:03:44.120Z,10.50
2023-05-14T01:06:19.653Z,11.05
2023-05-14T01:09:00.663Z,10.85
2023-05-14T01:11:32.901Z,10.73
2023-05-14T01:14:07.520Z,11.75
2023-05-14T01:16:36.388Z,10.75
2023-05-14T01:19:21.428Z,11.40
2023-05-14T01:21:50.877Z,11.00
2023-05-14T01:24:18.922Z,11.38
2023-05-14T01:26:47.066Z,11.52
2023-05-14T01:29:20.908Z,11.18
2023-05-14T01:31:51.729Z,11.05
2023-05-14T01:34:25.584Z,11.45
2023-05-14T01:36:57.960Z,11.65
2023-05-14T01:39:27.116Z,11.88
2023-05-14T01:41:56.376Z,11.48
2023-05-14T01:44:25.270Z,11.82
2023-05-14T01:46:53.909Z,10.75
2023-05-14T01:49:21.953Z,11.15
2023-05-14T01:51:50.127Z,11.23
2023-05-14T01:54:19.554Z,11.88
2023-05-14T01:56:50.592Z,11.73
2023-05-14T01:59:18.695Z,11.88
2023-05-14T02:01:46.800Z,11.90
2023-05-14T02:04:15.056Z,11.38
2023-05-14T02:06:45.620Z,11.70
2023-05-14T02:09:14.074Z,12.10
2023-05-14T02:11:43.486Z,12.20
2023-05-14T02:14:15.376Z,12.90
2023-05-14T02:16:43.628Z,11.00
2023-05-14T02:19:11.762Z,11.55
2023-05-14T02:21:39.867Z,12.05
2023-05-14T02:24:08.126Z,11.55
2023-05-14T02:26:36.713Z,11.90
2023-05-14T02:29:06.391Z,12.27
2023-05-14T02:31:34.679Z,12.70
2023-05-14T02:34:03.338Z,11.48
2023-05-14T02:36:32.005Z,12.93
2023-05-14T02:39:01.156Z,13.00
2023-05-14T02:41:30.885Z,13.07
2023-05-14T02:43:59.236Z,12.55
2023-05-14T02:46:29.114Z,12.23
2023-05-14T02:48:57.640Z,13.13
2023-05-14T02:51:27.234Z,12.57
2023-05-14T02:53:55.621Z,12.50
2023-05-14T02:56:23.994Z,12.25
2023-05-14T02:58:52.606Z,12.98
2023-05-14T03:01:21.522Z,12.48
2023-05-14T03:03:51.920Z,11.65
2023-05-14T03:06:20.912Z,12.52
2023-05-14T03:08:49.323Z,12.13
2023-05-14T03:11:17.799Z,11.75
2023-05-14T03:13:46.402Z,10.95
2023-05-14T03:16:14.786Z,12.27
2023-05-14T03:18:42.905Z,12.40
2023-05-14T03:21:12.329Z,11.73
2023-05-14T03:23:41.893Z,12.00
2023-05-14T03:26:12.926Z,11.98
2023-05-14T03:28:41.478Z,11.57
2023-05-14T03:31:09.609Z,12.38
2023-05-14T03:33:37.795Z,12.35
2023-05-14T03:36:07.248Z,11.55
2023-05-14T03:38:36.935Z,12.00
2023-05-14T03:41:05.186Z,12.13
2023-05-14T03:43:33.223Z,12.25
2023-05-14T03:46:01.228Z,12.02
2023-05-14T03:48:29.491Z,12.70
2023-05-14T03:51:00.356Z,12.05
2023-05-14T03:53:28.520Z,13.02
2023-05-14T03:55:57.927Z,12.70
2023-05-14T03:58:26.140Z,12.40
2023-05-14T04:00:54.209Z,12.25
2023-05-14T04:03:25.628Z,12.68
2023-05-14T04:05:53.785Z,12.75
2023-05-14T04:08:21.832Z,13.40
2023-05-14T04:10:49.869Z,12.80
2023-05-14T04:13:19.392Z,13.20
2023-05-14T04:15:47.631Z,13.40
2023-05-14T04:18:15.717Z,13.63
2023-05-14T04:20:43.882Z,13.88
2023-05-14T04:23:11.978Z,13.85
2023-05-14T04:25:40.032Z,13.38
2023-05-14T04:28:08.079Z,13.90
2023-05-14T04:30:37.633Z,13.25
2023-05-14T04:33:06.549Z,13.65
2023-05-14T04:35:34.652Z,14.23
2023-05-14T04:38:03.143Z,13.70
2023-05-14T04:40:31.992Z,14.55
2023-05-14T04:43:00.152Z,14.45
2023-05-14T04:45:28.257Z,14.40
2023-05-14T04:47:57.776Z,14.93
2023-05-14T04:50:26.196Z,14.85
2023-05-14T04:52:55.871Z,13.75
2023-05-14T04:55:24.289Z,14.13
2023-05-14T04:57:52.392Z,14.80
2023-05-14T05:00:22.183Z,14.82
2023-05-14T05:02:50.837Z,15.68
2023-05-14T05:05:20.698Z,15.77
2023-05-14T05:07:48.890Z,15.30
2023-05-14T05:10:19.198Z,14.45
2023-05-14T05:12:47.277Z,14.60
2023-05-14T05:15:15.505Z,14.57
2023-05-14T05:17:44.108Z,14.32
2023-05-14T05:20:13.424Z,14.80
2023-05-14T05:22:42.895Z,14.07
2023-05-14T05:25:12.867Z,14.93
2023-05-14T05:27:41.059Z,14.43
2023-05-14T05:30:10.167Z,14.43
2023-05-14T05:32:38.939Z,14.35
2023-05-14T05:35:07.963Z,14.52
2023-05-14T05:37:36.002Z,14.77
2023-05-14T05:40:10.389Z,14.52
2023-05-14T05:42:38.551Z,14.63
2023-05-14T05:45:08.198Z,13.70
2023-05-14T05:47:36.267Z,13.75
2023-05-14T05:50:04.614Z,13.80
2023-05-14T05:52:32.742Z,13.43
2023-05-14T05:55:01.087Z,13.35
2023-05-14T05:57:30.536Z,13.02
2023-05-14T05:59:58.625Z,13.20
2023-05-14T06:02:27.063Z,12.82
2023-05-14T06:04:55.241Z,13.52
2023-05-14T06:07:23.370Z,13.90
2023-05-14T06:09:51.397Z,13.85
2023-05-14T06:12:19.481Z,13.30
2023-05-14T06:14:49.194Z,13.02
2023-05-14T06:17:17.256Z,13.00
2023-05-14T06:19:45.400Z,12.73
2023-05-14T06:22:14.760Z,12.82
2023-05-14T06:24:42.881Z,13.05
2023-05-14T06:27:11.460Z,12.10
2023-05-14T06:29:39.639Z,12.35
2023-05-14T06:32:10.506Z,12.25
2023-05-14T06:34:38.636Z,11.90
2023-05-14T06:37:07.137Z,12.57
2023-05-14T06:39:35.216Z,13.52
2023-05-14T06:42:03.578Z,12.60
2023-05-14T06:44:32.024Z,12.40
2023-05-14T06:47:00.133Z,12.00
2023-05-14T06:49:29.693Z,10.82
2023-05-14T06:51:57.801Z,11.38
2023-05-14T06:54:25.889Z,10.75
2023-05-14T06:56:54.250Z,11.18
2023-05-14T06:59:22.382Z,12.18
2023-05-14T07:01:50.590Z,10.75
2023-05-14T07:04:18.763Z,10.85
2023-05-14T07:06:48.233Z,11.32
2023-05-14T07:09:17.296Z,10.30
2023-05-14T07:11:45.478Z,10.75
2023-05-14T07:14:13.826Z,10.38
2023-05-14T07:16:42.801Z,9.88
2023-05-14T07:19:11.127Z,10.65
2023-05-14T07:21:39.388Z,10.35
2023-05-14T07:24:09.217Z,10.65
2023-05-14T07:26:37.244Z,9.82
2023-05-14T07:29:05.456Z,10.13
2023-05-14T07:31:34.013Z,9.75
2023-05-14T07:34:02.117Z,8.15
2023-05-14T07:36:30.254Z,9.38
2023-05-14T07:39:01.548Z,8.80
2023-05-14T07:41:31.069Z,9.15
2023-05-14T07:43:59.117Z,8.48
2023-05-14T07:46:27.241Z,7.57
2023-05-14T07:48:55.901Z,7.57
2023-05-14T07:51:24.187Z,7.47
2023-05-14T07:53:52.266Z,7.18
2023-05-14T07:56:20.858Z,7.40
2023-05-14T07:58:51.831Z,6.80
2023-05-14T08:01:19.924Z,6.63
2023-05-14T08:03:48.243Z,7.53
2023-05-14T08:06:16.436Z,6.85
2023-05-14T08:08:44.650Z,7.22
2023-05-14T08:11:15.822Z,7.07
2023-05-14T08:13:46.194Z,6.80
2023-05-14T08:16:15.783Z,6.68
2023-05-14T08:18:43.965Z,6.85
2023-05-14T08:21:12.120Z,6.07
2023-05-14T08:23:40.152Z,5.90
2023-05-14T08:26:08.671Z,5.50
2023-05-14T08:28:36.703Z,5.30
2023-05-14T08:31:05.107Z,5.70
2023-05-14T08:33:34.644Z,5.28
2023-05-14T08:36:02.715Z,5.10
2023-05-14T08:38:30.894Z,5.60
2023-05-14T08:40:59.704Z,5.28
2023-05-14T08:43:31.876Z,4.88
2023-05-14T08:46:02.542Z,4.18
2023-05-14T08:48:34.972Z,5.57
2023-05-14T08:51:03.498Z,4.60
2023-05-14T08:53:32.367Z,3.95
2023-05-14T08:56:02.738Z,3.72
2023-05-14T08:58:30.816Z,4.00
2023-05-14T09:00:58.946Z,3.88
2023-05-14T09:03:27.119Z,4.20
2023-05-14T09:05:59.864Z,4.55
2023-05-14T09:08:28.643Z,3.65
2023-05-14T09:10:56.716Z,3.80
2023-05-14T09:13:25.820Z,3.75
2023-05-14T09:15:56.657Z,3.40
2023-05-14T09:18:27.668Z,3.63
2023-05-14T09:20:57.359Z,4.20
2023-05-14T09:23:27.149Z,3.63
2023-05-14T09:25:55.331Z,3.40
2023-05-14T09:28:24.644Z,3.70
2023-05-14T09:30:52.825Z,3.20
2023-05-14T09:33:28.348Z,3.33
2023-05-14T09:36:02.333Z,2.70
2023-05-14T09:38:30.985Z,3.22
2023-05-14T09:40:59.710Z,3.60
2023-05-14T09:43:30.518Z,4.25
2023-05-14T09:45:58.659Z,4.40
2023-05-14T09:48:27.003Z,4.22
2023-05-14T09:50:55.129Z,4.95
2023-05-14T09:53:24.643Z,5.47
2023-05-14T09:55:52.819Z,4.72
2023-05-14T09:58:20.958Z,5.78
2023-05-14T10:00:49.382Z,5.53
2023-05-14T10:03:19.864Z,5.75
2023-05-14T10:05:51.124Z,4.50
2023-05-14T10:08:26.756Z,4.97
2023-05-14T10:10:56.353Z,5.30
2023-05-14T10:13:33.017Z,5.70
2023-05-14T10:16:09.566Z,5.60
2023-05-14T10:18:42.210Z,5.70
2023-05-14T10:23:42.165Z,6.10
2023-05-14T10:26:11.590Z,5.53
2023-05-14T10:28:39.925Z,5.18
2023-05-14T10:31:10.759Z,5.10
2023-05-14T10:33:50.313Z,4.55
2023-05-14T10:36:19.687Z,4.68
2023-05-14T10:38:57.107Z,3.83
2023-05-14T10:41:25.423Z,4.10
2023-05-14T10:43:53.739Z,4.07
2023-05-14T10:46:25.279Z,3.45
2023-05-14T10:48:53.411Z,3.10
2023-05-14T10:51:23.111Z,3.20
2023-05-14T10:53:53.714Z,3.08
2023-05-14T10:56:22.358Z,3.03
2023-05-14T10:58:51.384Z,2.90
2023-05-14T11:01:19.488Z,3.17
2023-05-14T11:03:48.132Z,3.03
2023-05-14T11:06:16.963Z,3.15
2023-05-14T11:08:46.616Z,3.33
2023-05-14T11:11:19.230Z,2.90
2023-05-14T11:16:23.436Z,2.97
2023-05-14T11:19:01.956Z,3.28
2023-05-14T11:21:30.390Z,2.80
2023-05-14T11:23:58.541Z,3.08
2023-05-14T11:26:28.111Z,2.92
2023-05-14T11:28:56.359Z,3.17
2023-05-14T11:31:24.765Z,2.67
2023-05-14T11:33:53.777Z,2.63
2023-05-14T11:36:21.927Z,2.88
2023-05-14T11:38:52.222Z,2.90
2023-05-14T11:41:21.612Z,3.03
2023-05-14T11:43:51.440Z,3.03
2023-05-14T11:46:19.979Z,2.85
2023-05-14T11:48:48.690Z,2.90
2023-05-14T11:51:16.940Z,2.90
2023-05-14T11:53:46.698Z,2.58
2023-05-14T11:56:14.756Z,3.10
2023-05-14T11:58:48.411Z,2.70
2023-05-14T12:01:18.077Z,2.92
2023-05-14T12:03:46.573Z,3.03
2023-05-14T12:06:14.704Z,2.45
2023-05-14T12:08:42.851Z,2.75
2023-05-14T12:11:10.921Z,2.80
2023-05-14T12:13:41.483Z,2.75
2023-05-14T12:16:11.914Z,2.63
2023-05-14T12:18:41.553Z,2.63
2023-05-14T12:21:10.049Z,2.30
2023-05-14T12:23:40.173Z,2.60
2023-05-14T12:26:10.243Z,2.38
2023-05-14T12:28:43.390Z,2.13
2023-05-14T12:31:13.083Z,2.20
2023-05-14T12:33:42.528Z,2.60
2023-05-14T12:36:21.150Z,2.88
2023-05-14T12:38:50.064Z,2.60
2023-05-14T12:41:18.671Z,2.47
2023-05-14T12:43:49.267Z,2.80
2023-05-14T12:46:17.636Z,2.40
2023-05-14T12:48:52.378Z,2.40
2023-05-14T12:51:21.535Z,2.40
2023-05-14T12:53:49.669Z,2.47
2023-05-14T12:56:21.425Z,2.50
2023-05-14T12:58:49.557Z,2.40
2023-05-14T13:01:20.144Z,2.03
2023-05-14T13:03:49.671Z,2.25
2023-05-14T13:06:18.126Z,2.17
2023-05-14T13:08:46.262Z,2.20
2023-05-14T13:11:14.358Z,2.70
2023-05-14T13:13:42.418Z,2.10
2023-05-14T13:16:11.346Z,2.60
2023-05-14T13:18:39.489Z,2.28
2023-05-14T13:21:08.998Z,2.50
2023-05-14T13:23:37.113Z,2.30
2023-05-14T13:26:05.195Z,2.45
2023-05-14T13:28:33.239Z,2.08
2023-05-14T13:31:07.042Z,2.00
2023-05-14T13:33:37.133Z,2.22
2023-05-14T13:36:06.128Z,2.03
2023-05-14T13:38:35.586Z,2.20
2023-05-14T13:41:03.994Z,2.40
2023-05-14T13:43:33.257Z,2.63
2023-05-14T13:46:01.875Z,2.40
2023-05-14T13:48:31.079Z,3.50
2023-05-14T13:50:59.453Z,3.28
2023-05-14T13:53:27.876Z,3.00
2023-05-14T13:55:58.510Z,3.60
2023-05-14T13:58:26.832Z,3.38
2023-05-14T14:00:56.383Z,3.38
2023-05-14T14:03:24.533Z,3.42
2023-05-14T14:05:52.780Z,3.10
2023-05-14T14:08:23.960Z,3.03
2023-05-14T14:10:54.660Z,3.13
2023-05-14T14:13:24.562Z,2.50
2023-05-14T14:15:53.087Z,3.00
2023-05-14T14:18:21.226Z,3.05
2023-05-14T14:20:49.359Z,2.75
2023-05-14T14:23:17.517Z,2.60
2023-05-14T14:25:45.645Z,2.65
2023-05-14T14:28:13.749Z,2.80
2023-05-14T14:30:43.934Z,2.83
2023-05-14T14:33:12.453Z,3.35
2023-05-14T14:35:40.562Z,3.05
2023-05-14T14:38:08.610Z,3.00
2023-05-14T14:40:39.191Z,3.00
2023-05-14T14:43:07.266Z,3.55
2023-05-14T14:45:35.432Z,3.17
2023-05-14T14:48:31.524Z,3.83
2023-05-14T14:51:00.069Z,3.20
2023-05-14T14:53:28.401Z,3.70
2023-05-14T14:55:57.219Z,3.35
2023-05-14T14:58:26.209Z,3.78
2023-05-14T15:00:56.396Z,3.50
2023-05-14T15:03:26.207Z,3.83
2023-05-14T15:05:55.868Z,3.53
2023-05-14T15:08:27.504Z,3.55
2023-05-14T15:10:55.728Z,4.00
2023-05-14T15:13:24.622Z,12.98
2023-05-14T15:15:53.051Z,4.63
2023-05-14T15:18:21.226Z,3.70
2023-05-14T15:20:49.502Z,3.28
2023-05-14T15:23:18.989Z,3.63
2023-05-14T15:25:47.100Z,3.85
2023-05-14T15:28:15.416Z,3.58
2023-05-14T15:30:43.445Z,3.88
2023-05-14T15:33:12.088Z,3.28
2023-05-14T15:35:40.490Z,3.05
2023-05-14T15:38:08.558Z,3.40
2023-05-14T15:40:37.982Z,3.00
2023-05-14T15:43:09.059Z,2.90
2023-05-14T15:45:37.149Z,3.20
2023-05-14T15:48:05.515Z,3.10
2023-05-14T15:50:33.590Z,2.97
2023-05-14T15:53:01.876Z,3.10
2023-05-14T15:55:29.984Z,3.42
2023-05-14T15:57:59.417Z,3.30
2023-05-14T16:00:30.503Z,2.78
2023-05-14T16:02:58.695Z,2.95
2023-05-14T16:05:30.470Z,2.80
2023-05-14T16:07:58.626Z,2.83
2023-05-14T16:10:26.837Z,3.22
2023-05-14T16:12:55.249Z,3.20
2023-05-14T16:15:24.723Z,2.97
2023-05-14T16:17:52.979Z,3.42
2023-05-14T16:20:21.368Z,3.30
2023-05-14T16:22:49.556Z,3.40
2023-05-14T16:25:18.732Z,2.90
2023-05-14T16:27:46.926Z,3.35
2023-05-14T16:30:15.121Z,2.80
2023-05-14T16:32:48.498Z,3.08
2023-05-14T16:35:16.811Z,3.25
2023-05-14T16:37:44.968Z,3.40
2023-05-14T16:40:16.162Z,2.72
2023-05-14T16:42:45.473Z,3.00
2023-05-14T16:45:14.538Z,3.40
2023-05-14T16:47:47.062Z,3.40
2023-05-14T16:50:17.712Z,3.55
2023-05-14T16:52:45.776Z,3.58
2023-05-14T16:55:13.884Z,3.45
2023-05-14T16:57:43.804Z,3.25
2023-05-14T17:00:13.475Z,3.10
2023-05-14T17:02:41.588Z,3.20
2023-05-14T17:05:11.448Z,3.35
2023-05-14T17:07:40.025Z,3.42
2023-05-14T17:10:08.978Z,3.40
2023-05-14T17:12:37.092Z,3.35
2023-05-14T17:15:06.228Z,3.20
2023-05-14T17:17:34.623Z,3.63
2023-05-14T17:20:05.587Z,3.10
2023-05-14T17:22:35.639Z,3.30
2023-05-14T17:25:03.732Z,3.47
2023-05-14T17:27:34.560Z,3.17
2023-05-14T17:30:03.468Z,3.55
2023-05-14T17:32:31.888Z,3.20
2023-05-14T17:35:00.048Z,2.83
2023-05-14T17:37:28.284Z,3.00
2023-05-14T17:39:57.752Z,3.35
2023-05-14T17:42:25.835Z,3.55
2023-05-14T17:44:54.256Z,3.47
2023-05-14T17:47:22.577Z,3.63
2023-05-14T17:49:50.966Z,3.20
2023-05-14T17:52:19.208Z,2.83
2023-05-14T17:54:47.588Z,3.85
2023-05-14T17:57:17.046Z,3.42
2023-05-14T17:59:45.310Z,4.50
2023-05-14T18:02:13.462Z,4.47
2023-05-14T18:04:41.548Z,4.93
2023-05-14T18:07:09.716Z,4.68
2023-05-14T18:09:37.829Z,4.70
2023-05-14T18:12:09.820Z,5.05
2023-05-14T18:14:39.290Z,5.38
2023-05-14T18:17:07.439Z,5.20
2023-05-14T18:19:35.558Z,5.88
2023-05-14T18:22:03.622Z,6.00
2023-05-14T18:24:31.620Z,6.20
2023-05-14T18:27:00.557Z,6.63
2023-05-14T18:29:28.687Z,5.72
2023-05-14T18:31:58.130Z,5.78
2023-05-14T18:34:26.394Z,6.50
2023-05-14T18:36:54.481Z,6.03
2023-05-14T18:39:22.504Z,6.25
2023-05-14T18:41:50.662Z,6.47
2023-05-14T18:44:18.878Z,6.22
2023-05-14T18:46:47.144Z,6.03
2023-05-14T18:49:16.619Z,5.85
2023-05-14T18:51:44.815Z,6.20
2023-05-14T18:54:12.888Z,6.70
2023-05-14T18:56:46.124Z,6.07
2023-05-14T18:59:15.597Z,6.53
2023-05-14T19:01:43.750Z,7.03
2023-05-14T19:04:11.809Z,7.05
2023-05-14T19:06:41.420Z,7.75
2023-05-14T19:09:09.534Z,7.15
2023-05-14T19:11:37.628Z,7.45
2023-05-14T19:14:05.648Z,6.88
2023-05-14T19:16:33.919Z,7.68
2023-05-14T19:19:02.047Z,7.38
2023-05-14T19:21:30.195Z,7.40
2023-05-14T19:23:59.720Z,8.52
2023-05-14T19:26:27.972Z,7.85
2023-05-14T19:28:58.592Z,7.72
2023-05-14T19:31:27.109Z,8.32
2023-05-14T19:33:55.320Z,7.78
2023-05-14T19:36:23.426Z,8.05
2023-05-14T19:38:51.658Z,8.60
2023-05-14T19:41:21.675Z,7.32
2023-05-14T19:43:49.762Z,7.53
2023-05-14T19:46:17.858Z,7.97
2023-05-14T19:48:46.089Z,7.40
2023-05-14T19:51:14.116Z,7.63
2023-05-14T19:53:42.218Z,8.60
2023-05-14T19:56:10.419Z,8.38
2023-05-14T19:58:39.915Z,7.95
2023-05-14T20:01:12.142Z,6.97
2023-05-14T20:03:40.590Z,7.25
2023-05-14T20:06:08.953Z,7.60
2023-05-14T20:08:37.005Z,7.00
2023-05-14T20:11:05.060Z,7.22
2023-05-14T20:13:33.193Z,7.53
2023-05-14T20:16:02.618Z,6.93
2023-05-14T20:18:33.131Z,6.10
2023-05-14T20:21:01.340Z,7.32
2023-05-14T20:23:29.474Z,6.90
2023-05-14T20:25:57.726Z,6.93
2023-05-14T20:28:25.975Z,7.55
2023-05-14T20:30:54.861Z,7.28
2023-05-14T20:33:24.415Z,8.48
2023-05-14T20:35:52.536Z,7.57
2023-05-14T20:38:20.679Z,8.00
2023-05-14T20:40:48.918Z,8.02
2023-05-14T20:43:17.285Z,7.22
2023-05-14T20:45:45.539Z,8.38
2023-05-14T20:48:16.381Z,7.85
2023-05-14T20:50:46.441Z,7.43
2023-05-14T20:53:14.555Z,7.80
2023-05-14T20:55:42.660Z,7.47
2023-05-14T20:58:10.803Z,8.23
2023-05-14T21:00:39.202Z,8.02
2023-05-14T21:03:07.434Z,7.88
2023-05-14T21:05:35.685Z,8.20
2023-05-14T21:08:05.356Z,8.05
2023-05-14T21:10:33.540Z,8.40
2023-05-14T21:13:01.613Z,7.97
2023-05-14T21:15:30.740Z,8.88
2023-05-14T21:17:58.904Z,7.82
2023-05-14T21:20:26.978Z,8.52
2023-05-14T21:22:55.144Z,8.82
2023-05-14T21:25:25.335Z,8.63
2023-05-14T21:27:53.660Z,7.47
2023-05-14T21:30:21.762Z,8.70
2023-05-14T21:32:49.910Z,8.35
2023-05-14T21:35:18.357Z,8.48
2023-05-14T21:37:46.665Z,9.07
2023-05-14T21:40:14.835Z,8.57
2023-05-14T21:42:44.285Z,8.93
2023-05-14T21:45:12.659Z,9.98
2023-05-14T21:47:41.045Z,9.27
2023-05-14T21:50:09.876Z,8.48
2023-05-14T21:52:38.691Z,8.90
2023-05-14T21:55:07.355Z,9.35
2023-05-14T21:57:37.754Z,8.80
2023-05-14T22:00:12.631Z,10.10
2023-05-14T22:02:41.148Z,9.45
2023-05-14T22:05:09.732Z,8.82
2023-05-14T22:07:37.824Z,9.30
2023-05-14T22:10:07.055Z,9.38
2023-05-14T22:12:35.169Z,9.40
2023-05-14T22:15:03.840Z,9.60
2023-05-14T22:17:34.414Z,9.68
2023-05-14T22:20:02.775Z,9.90
2023-05-14T22:22:30.873Z,9.82
2023-05-14T22:24:58.955Z,9.77
2023-05-14T22:27:27.039Z,9.48
2023-05-14T22:29:55.265Z,10.02
2023-05-14T22:32:23.442Z,10.50
2023-05-14T22:34:56.423Z,9.32
2023-05-14T22:37:24.664Z,9.93
2023-05-14T22:39:52.780Z,9.48
2023-05-14T22:42:21.402Z,10.55
2023-05-14T22:44:49.424Z,10.48
2023-05-14T22:47:17.581Z,10.95
2023-05-14T22:49:45.671Z,10.38
2023-05-14T22:52:15.128Z,10.02
2023-05-14T22:54:43.480Z,11.30
2023-05-14T22:57:11.695Z,11.65
2023-05-14T22:59:40.215Z,10.75
2023-05-14T23:02:08.355Z,10.30
2023-05-14T23:04:36.580Z,11.30
2023-05-14T23:07:04.930Z,11.32
2023-05-14T23:09:34.357Z,10.75
2023-05-14T23:12:02.499Z,11.20
2023-05-14T23:14:30.600Z,11.13
2023-05-14T23:16:58.718Z,11.15
2023-05-14T23:19:29.775Z,11.85
2023-05-14T23:21:58.371Z,11.52
2023-05-14T23:24:26.621Z,11.32
2023-05-14T23:26:56.365Z,11.50
2023-05-14T23:29:24.474Z,12.13
2023-05-14T23:31:52.637Z,11.98
2023-05-14T23:34:22.147Z,11.55
2023-05-14T23:36:52.753Z,11.15
2023-05-14T23:39:20.939Z,12.05
2023-05-14T23:41:49.104Z,11.77
2023-05-14T23:44:18.599Z,12.25
2023-05-14T23:46:46.784Z,11.40
2023-05-14T23:49:15.037Z,12.10
2023-05-14T23:51:43.097Z,13.38
2023-05-14T23:54:11.830Z,11.95
2023-05-14T23:56:40.183Z,12.35
2023-05-14T23:59:08.550Z,11.68
